sensor_id;sensor_type;location;lat;lon;timestamp;P1;durP1;ratioP1;P2;durP2;ratioP2
35646;SDS011;28680;45.642;13.756;2023-08-12T00:00:52;4.45;;;2.67;;
35646;SDS011;28680;45.642;13.756;2023-08-12T00:03:18;5.03;;;2.30;;
35646;SDS011;28680;45.642;13.756;2023-08-12T00:05:45;5.28;;;2.60;;
35646;SDS011;28680;45.642;13.756;2023-08-12T00:08:11;5.18;;;2.60;;
35646;SDS011;28680;45.642;13.756;2023-08-12T00:10:37;5.25;;;2.78;;
35646;SDS011;28680;45.642;13.756;2023-08-12T00:13:03;5.35;;;2.38;;
35646;SDS011;28680;45.642;13.756;2023-08-12T00:15:29;4.40;;;2.90;;
35646;SDS011;28680;45.642;13.756;2023-08-12T00:17:55;4.10;;;2.58;;
35646;SDS011;28680;45.642;13.756;2023-08-12T00:20:20;6.55;;;2.80;;
35646;SDS011;28680;45.642;13.756;2023-08-12T00:22:46;4.03;;;2.40;;
35646;SDS011;28680;45.642;13.756;2023-08-12T00:25:12;6.80;;;2.58;;
35646;SDS011;28680;45.642;13.756;2023-08-12T00:27:38;5.07;;;2.60;;
35646;SDS011;28680;45.642;13.756;2023-08-12T00:30:04;7.82;;;2.78;;
35646;SDS011;28680;45.642;13.756;2023-08-12T00:32:31;3.20;;;2.60;;
35646;SDS011;28680;45.642;13.756;2023-08-12T00:34:57;5.70;;;2.85;;
35646;SDS011;28680;45.642;13.756;2023-08-12T00:37:23;5.00;;;2.80;;
35646;SDS011;28680;45.642;13.756;2023-08-12T00:39:49;3.20;;;2.47;;
35646;SDS011;28680;45.642;13.756;2023-08-12T00:42:15;4.20;;;2.63;;
35646;SDS011;28680;45.642;13.756;2023-08-12T00:44:41;4.28;;;2.50;;
35646;SDS011;28680;45.642;13.756;2023-08-12T00:47:07;3.25;;;2.25;;
35646;SDS011;28680;45.642;13.756;2023-08-12T00:49:33;4.78;;;2.70;;
35646;SDS011;28680;45.642;13.756;2023-08-12T00:52:01;4.00;;;2.47;;
35646;SDS011;28680;45.642;13.756;2023-08-12T00:54:28;4.15;;;2.53;;
35646;SDS011;28680;45.642;13.756;2023-08-12T00:56:54;4.68;;;2.05;;
35646;SDS011;28680;45.642;13.756;2023-08-12T00:59:21;4.28;;;2.83;;
35646;SDS011;28680;45.642;13.756;2023-08-12T01:01:48;4.55;;;2.45;;
35646;SDS011;28680;45.642;13.756;2023-08-12T01:04:14;8.80;;;2.53;;
35646;SDS011;28680;45.642;13.756;2023-08-12T01:06:40;5.75;;;2.40;;
35646;SDS011;28680;45.642;13.756;2023-08-12T01:09:08;4.03;;;2.47;;
35646;SDS011;28680;45.642;13.756;2023-08-12T01:11:36;6.53;;;2.42;;
35646;SDS011;28680;45.642;13.756;2023-08-12T01:14:23;4.65;;;2.38;;
35646;SDS011;28680;45.642;13.756;2023-08-12T01:17:02;5.55;;;2.53;;
35646;SDS011;28680;45.642;13.756;2023-08-12T01:19:34;4.90;;;2.95;;
35646;SDS011;28680;45.642;13.756;2023-08-12T01:22:09;4.60;;;2.30;;
35646;SDS011;28680;45.642;13.756;2023-08-12T01:24:37;6.07;;;2.58;;
35646;SDS011;28680;45.642;13.756;2023-08-12T01:27:10;5.97;;;2.80;;
35646;SDS011;28680;45.642;13.756;2023-08-12T01:29:43;6.03;;;2.70;;
35646;SDS011;28680;45.642;13.756;2023-08-12T01:37:31;5.90;;;2.20;;
35646;SDS011;28680;45.642;13.756;2023-08-12T01:40:00;3.83;;;2.42;;
35646;SDS011;28680;45.642;13.756;2023-08-12T01:42:34;5.28;;;2.50;;
35646;SDS011;28680;45.642;13.756;2023-08-12T01:45:03;5.78;;;2.63;;
35646;SDS011;28680;45.642;13.756;2023-08-12T01:47:31;4.30;;;2.22;;
35646;SDS011;28680;45.642;13.756;2023-08-12T01:49:57;4.82;;;2.63;;
35646;SDS011;28680;45.642;13.756;2023-08-12T01:52:23;5.65;;;2.42;;
35646;SDS011;28680;45.642;13.756;2023-08-12T01:54:50;4.05;;;2.40;;
35646;SDS011;28680;45.642;13.756;2023-08-12T01:57:16;3.13;;;2.53;;
35646;SDS011;28680;45.642;13.756;2023-08-12T01:59:42;5.20;;;2.38;;
35646;SDS011;28680;45.642;13.756;2023-08-12T02:02:10;4.00;;;2.60;;
35646;SDS011;28680;45.642;13.756;2023-08-12T02:04:36;4.15;;;2.20;;
35646;SDS011;28680;45.642;13.756;2023-08-12T02:07:03;7.22;;;2.92;;
35646;SDS011;28680;45.642;13.756;2023-08-12T02:09:29;5.18;;;2.83;;
35646;SDS011;28680;45.642;13.756;2023-08-12T02:11:56;8.23;;;2.70;;
35646;SDS011;28680;45.642;13.756;2023-08-12T02:14:22;5.55;;;2.65;;
35646;SDS011;28680;45.642;13.756;2023-08-12T02:16:48;4.47;;;2.47;;
35646;SDS011;28680;45.642;13.756;2023-08-12T02:19:14;3.47;;;2.70;;
35646;SDS011;28680;45.642;13.756;2023-08-12T02:21:41;4.07;;;2.72;;
35646;SDS011;28680;45.642;13.756;2023-08-12T02:24:08;4.03;;;2.20;;
35646;SDS011;28680;45.642;13.756;2023-08-12T02:26:37;7.03;;;2.75;;
35646;SDS011;28680;45.642;13.756;2023-08-12T02:29:03;4.68;;;2.90;;
35646;SDS011;28680;45.642;13.756;2023-08-12T02:31:30;4.82;;;2.70;;
35646;SDS011;28680;45.642;13.756;2023-08-12T02:33:55;6.88;;;2.70;;
35646;SDS011;28680;45.642;13.756;2023-08-12T02:36:23;5.13;;;2.38;;
35646;SDS011;28680;45.642;13.756;2023-08-12T02:38:50;3.55;;;2.33;;
35646;SDS011;28680;45.642;13.756;2023-08-12T02:41:16;3.50;;;2.58;;
35646;SDS011;28680;45.642;13.756;2023-08-12T02:43:42;4.32;;;2.40;;
35646;SDS011;28680;45.642;13.756;2023-08-12T02:46:08;5.72;;;2.20;;
35646;SDS011;28680;45.642;13.756;2023-08-12T02:48:35;4.72;;;2.30;;
35646;SDS011;28680;45.642;13.756;2023-08-12T02:51:01;4.32;;;2.20;;
35646;SDS011;28680;45.642;13.756;2023-08-12T02:53:27;3.40;;;2.25;;
35646;SDS011;28680;45.642;13.756;2023-08-12T02:55:53;6.93;;;2.35;;
35646;SDS011;28680;45.642;13.756;2023-08-12T02:58:19;4.45;;;2.38;;
35646;SDS011;28680;45.642;13.756;2023-08-12T03:00:45;5.47;;;2.60;;
35646;SDS011;28680;45.642;13.756;2023-08-12T03:03:11;5.75;;;2.60;;
35646;SDS011;28680;45.642;13.756;2023-08-12T03:05:37;4.75;;;2.38;;
35646;SDS011;28680;45.642;13.756;2023-08-12T03:08:04;4.25;;;2.55;;
35646;SDS011;28680;45.642;13.756;2023-08-12T03:10:32;3.47;;;2.65;;
35646;SDS011;28680;45.642;13.756;2023-08-12T03:13:00;7.28;;;2.40;;
35646;SDS011;28680;45.642;13.756;2023-08-12T03:15:26;3.20;;;2.05;;
35646;SDS011;28680;45.642;13.756;2023-08-12T03:17:52;5.63;;;2.28;;
35646;SDS011;28680;45.642;13.756;2023-08-12T03:20:18;4.07;;;2.58;;
35646;SDS011;28680;45.642;13.756;2023-08-12T03:22:44;2.72;;;2.30;;
35646;SDS011;28680;45.642;13.756;2023-08-12T03:25:10;3.22;;;2.40;;
35646;SDS011;28680;45.642;13.756;2023-08-12T03:27:36;3.15;;;2.22;;
35646;SDS011;28680;45.642;13.756;2023-08-12T03:30:03;6.40;;;2.40;;
35646;SDS011;28680;45.642;13.756;2023-08-12T03:32:31;3.38;;;2.30;;
35646;SDS011;28680;45.642;13.756;2023-08-12T03:34:58;5.20;;;2.47;;
35646;SDS011;28680;45.642;13.756;2023-08-12T03:37:25;4.07;;;2.30;;
35646;SDS011;28680;45.642;13.756;2023-08-12T03:39:52;3.63;;;2.50;;
35646;SDS011;28680;45.642;13.756;2023-08-12T03:42:19;7.00;;;2.60;;
35646;SDS011;28680;45.642;13.756;2023-08-12T03:44:46;5.68;;;2.20;;
35646;SDS011;28680;45.642;13.756;2023-08-12T03:47:12;5.65;;;2.58;;
35646;SDS011;28680;45.642;13.756;2023-08-12T03:49:39;6.28;;;2.70;;
35646;SDS011;28680;45.642;13.756;2023-08-12T03:52:06;6.60;;;2.33;;
35646;SDS011;28680;45.642;13.756;2023-08-12T03:54:33;3.30;;;2.35;;
35646;SDS011;28680;45.642;13.756;2023-08-12T03:56:59;4.85;;;2.47;;
35646;SDS011;28680;45.642;13.756;2023-08-12T03:59:27;4.68;;;2.50;;
35646;SDS011;28680;45.642;13.756;2023-08-12T04:01:53;5.22;;;2.25;;
35646;SDS011;28680;45.642;13.756;2023-08-12T04:04:19;3.25;;;2.15;;
35646;SDS011;28680;45.642;13.756;2023-08-12T04:06:44;4.18;;;2.42;;
35646;SDS011;28680;45.642;13.756;2023-08-12T04:09:15;5.97;;;2.78;;
35646;SDS011;28680;45.642;13.756;2023-08-12T04:11:41;4.97;;;2.70;;
35646;SDS011;28680;45.642;13.756;2023-08-12T04:14:07;3.42;;;2.50;;
35646;SDS011;28680;45.642;13.756;2023-08-12T04:16:33;4.40;;;2.53;;
35646;SDS011;28680;45.642;13.756;2023-08-12T04:18:59;3.70;;;2.47;;
35646;SDS011;28680;45.642;13.756;2023-08-12T04:21:25;3.80;;;2.28;;
35646;SDS011;28680;45.642;13.756;2023-08-12T04:23:51;4.05;;;2.40;;
35646;SDS011;28680;45.642;13.756;2023-08-12T04:26:18;3.53;;;2.40;;
35646;SDS011;28680;45.642;13.756;2023-08-12T04:28:44;3.42;;;2.30;;
35646;SDS011;28680;45.642;13.756;2023-08-12T04:31:10;6.03;;;2.65;;
35646;SDS011;28680;45.642;13.756;2023-08-12T04:33:39;6.15;;;2.90;;
35646;SDS011;28680;45.642;13.756;2023-08-12T04:36:06;4.45;;;2.83;;
35646;SDS011;28680;45.642;13.756;2023-08-12T04:38:32;7.97;;;2.55;;
35646;SDS011;28680;45.642;13.756;2023-08-12T04:41:00;4.90;;;2.88;;
35646;SDS011;28680;45.642;13.756;2023-08-12T04:43:27;3.95;;;2.55;;
35646;SDS011;28680;45.642;13.756;2023-08-12T04:45:53;8.13;;;5.78;;
35646;SDS011;28680;45.642;13.756;2023-08-12T04:48:19;9.10;;;2.50;;
35646;SDS011;28680;45.642;13.756;2023-08-12T04:50:45;4.07;;;2.30;;
35646;SDS011;28680;45.642;13.756;2023-08-12T04:53:11;4.78;;;2.60;;
35646;SDS011;28680;45.642;13.756;2023-08-12T04:55:37;3.63;;;2.20;;
35646;SDS011;28680;45.642;13.756;2023-08-12T04:58:04;4.93;;;2.40;;
35646;SDS011;28680;45.642;13.756;2023-08-12T05:00:31;4.30;;;2.50;;
35646;SDS011;28680;45.642;13.756;2023-08-12T05:02:58;3.50;;;2.17;;
35646;SDS011;28680;45.642;13.756;2023-08-12T05:05:25;3.65;;;2.38;;
35646;SDS011;28680;45.642;13.756;2023-08-12T05:07:52;5.93;;;2.50;;
35646;SDS011;28680;45.642;13.756;2023-08-12T05:10:19;4.57;;;2.30;;
35646;SDS011;28680;45.642;13.756;2023-08-12T05:12:45;6.47;;;2.88;;
35646;SDS011;28680;45.642;13.756;2023-08-12T05:15:12;3.92;;;2.35;;
35646;SDS011;28680;45.642;13.756;2023-08-12T05:17:38;4.63;;;2.30;;
35646;SDS011;28680;45.642;13.756;2023-08-12T05:20:06;6.22;;;2.97;;
35646;SDS011;28680;45.642;13.756;2023-08-12T05:22:33;5.32;;;2.40;;
35646;SDS011;28680;45.642;13.756;2023-08-12T05:24:59;5.63;;;3.03;;
35646;SDS011;28680;45.642;13.756;2023-08-12T05:27:25;6.53;;;2.80;;
35646;SDS011;28680;45.642;13.756;2023-08-12T05:29:51;4.07;;;2.60;;
35646;SDS011;28680;45.642;13.756;2023-08-12T05:32:17;6.22;;;2.40;;
35646;SDS011;28680;45.642;13.756;2023-08-12T05:34:43;4.40;;;2.65;;
35646;SDS011;28680;45.642;13.756;2023-08-12T05:37:09;10.02;;;2.85;;
35646;SDS011;28680;45.642;13.756;2023-08-12T05:39:35;3.05;;;2.60;;
35646;SDS011;28680;45.642;13.756;2023-08-12T05:42:01;5.28;;;2.83;;
35646;SDS011;28680;45.642;13.756;2023-08-12T05:44:27;4.55;;;2.80;;
35646;SDS011;28680;45.642;13.756;2023-08-12T05:46:53;5.38;;;2.60;;
35646;SDS011;28680;45.642;13.756;2023-08-12T05:49:18;6.03;;;2.88;;
35646;SDS011;28680;45.642;13.756;2023-08-12T05:51:44;3.47;;;2.50;;
35646;SDS011;28680;45.642;13.756;2023-08-12T05:54:10;5.50;;;2.28;;
35646;SDS011;28680;45.642;13.756;2023-08-12T05:56:36;6.35;;;2.53;;
35646;SDS011;28680;45.642;13.756;2023-08-12T05:59:02;4.53;;;2.67;;
35646;SDS011;28680;45.642;13.756;2023-08-12T06:01:29;9.32;;;2.88;;
35646;SDS011;28680;45.642;13.756;2023-08-12T06:03:54;6.90;;;2.65;;
35646;SDS011;28680;45.642;13.756;2023-08-12T06:06:20;9.15;;;2.75;;
35646;SDS011;28680;45.642;13.756;2023-08-12T06:08:47;8.48;;;2.65;;
35646;SDS011;28680;45.642;13.756;2023-08-12T06:11:13;5.93;;;2.88;;
35646;SDS011;28680;45.642;13.756;2023-08-12T06:13:39;4.95;;;2.88;;
35646;SDS011;28680;45.642;13.756;2023-08-12T06:16:06;7.63;;;3.10;;
35646;SDS011;28680;45.642;13.756;2023-08-12T06:18:32;6.78;;;3.05;;
35646;SDS011;28680;45.642;13.756;2023-08-12T06:20:58;4.95;;;2.78;;
35646;SDS011;28680;45.642;13.756;2023-08-12T06:23:24;5.18;;;3.20;;
35646;SDS011;28680;45.642;13.756;2023-08-12T06:25:50;7.13;;;2.92;;
35646;SDS011;28680;45.642;13.756;2023-08-12T06:28:16;3.75;;;2.60;;
35646;SDS011;28680;45.642;13.756;2023-08-12T06:30:44;6.25;;;2.67;;
35646;SDS011;28680;45.642;13.756;2023-08-12T06:33:12;5.95;;;2.80;;
35646;SDS011;28680;45.642;13.756;2023-08-12T06:35:38;6.57;;;2.63;;
35646;SDS011;28680;45.642;13.756;2023-08-12T06:38:05;3.08;;;2.45;;
35646;SDS011;28680;45.642;13.756;2023-08-12T06:40:31;4.68;;;2.67;;
35646;SDS011;28680;45.642;13.756;2023-08-12T06:42:57;6.43;;;2.50;;
35646;SDS011;28680;45.642;13.756;2023-08-12T06:45:22;3.95;;;2.30;;
35646;SDS011;28680;45.642;13.756;2023-08-12T06:47:48;4.18;;;2.72;;
35646;SDS011;28680;45.642;13.756;2023-08-12T06:50:14;4.38;;;2.35;;
35646;SDS011;28680;45.642;13.756;2023-08-12T06:52:40;3.30;;;2.60;;
35646;SDS011;28680;45.642;13.756;2023-08-12T06:55:06;5.47;;;3.13;;
35646;SDS011;28680;45.642;13.756;2023-08-12T06:57:33;4.28;;;3.05;;
35646;SDS011;28680;45.642;13.756;2023-08-12T06:59:59;6.10;;;3.03;;
35646;SDS011;28680;45.642;13.756;2023-08-12T07:02:25;4.72;;;2.72;;
35646;SDS011;28680;45.642;13.756;2023-08-12T07:04:50;6.72;;;2.90;;
35646;SDS011;28680;45.642;13.756;2023-08-12T07:07:16;4.65;;;3.10;;
35646;SDS011;28680;45.642;13.756;2023-08-12T07:09:42;4.07;;;2.90;;
35646;SDS011;28680;45.642;13.756;2023-08-12T07:12:08;5.03;;;3.10;;
35646;SDS011;28680;45.642;13.756;2023-08-12T07:14:35;5.20;;;2.80;;
35646;SDS011;28680;45.642;13.756;2023-08-12T07:17:01;4.13;;;2.78;;
35646;SDS011;28680;45.642;13.756;2023-08-12T07:19:27;6.90;;;2.63;;
35646;SDS011;28680;45.642;13.756;2023-08-12T07:21:53;6.43;;;2.45;;
35646;SDS011;28680;45.642;13.756;2023-08-12T07:24:18;5.68;;;2.70;;
35646;SDS011;28680;45.642;13.756;2023-08-12T07:26:44;4.82;;;2.65;;
35646;SDS011;28680;45.642;13.756;2023-08-12T07:29:10;7.22;;;2.55;;
35646;SDS011;28680;45.642;13.756;2023-08-12T07:31:37;6.88;;;2.75;;
35646;SDS011;28680;45.642;13.756;2023-08-12T07:34:03;6.43;;;2.70;;
35646;SDS011;28680;45.642;13.756;2023-08-12T07:36:29;5.30;;;2.30;;
35646;SDS011;28680;45.642;13.756;2023-08-12T07:38:55;4.35;;;2.30;;
35646;SDS011;28680;45.642;13.756;2023-08-12T07:41:21;7.35;;;2.65;;
35646;SDS011;28680;45.642;13.756;2023-08-12T07:43:47;6.35;;;2.60;;
35646;SDS011;28680;45.642;13.756;2023-08-12T07:46:13;4.38;;;2.35;;
35646;SDS011;28680;45.642;13.756;2023-08-12T07:48:39;2.65;;;2.10;;
35646;SDS011;28680;45.642;13.756;2023-08-12T07:51:05;3.38;;;2.10;;
35646;SDS011;28680;45.642;13.756;2023-08-12T07:53:31;3.83;;;2.40;;
35646;SDS011;28680;45.642;13.756;2023-08-12T07:55:57;3.92;;;2.40;;
35646;SDS011;28680;45.642;13.756;2023-08-12T07:58:23;4.90;;;2.33;;
35646;SDS011;28680;45.642;13.756;2023-08-12T08:00:52;3.00;;;2.30;;
35646;SDS011;28680;45.642;13.756;2023-08-12T08:03:19;7.85;;;2.95;;
35646;SDS011;28680;45.642;13.756;2023-08-12T08:05:45;7.18;;;2.47;;
35646;SDS011;28680;45.642;13.756;2023-08-12T08:08:12;3.55;;;2.20;;
35646;SDS011;28680;45.642;13.756;2023-08-12T08:10:38;5.50;;;2.28;;
35646;SDS011;28680;45.642;13.756;2023-08-12T08:13:04;3.50;;;2.58;;
35646;SDS011;28680;45.642;13.756;2023-08-12T08:15:30;6.18;;;2.80;;
35646;SDS011;28680;45.642;13.756;2023-08-12T08:17:57;9.13;;;2.85;;
35646;SDS011;28680;45.642;13.756;2023-08-12T08:20:23;8.45;;;3.30;;
35646;SDS011;28680;45.642;13.756;2023-08-12T08:22:48;3.15;;;2.10;;
35646;SDS011;28680;45.642;13.756;2023-08-12T08:25:14;3.70;;;2.33;;
35646;SDS011;28680;45.642;13.756;2023-08-12T08:27:40;4.43;;;2.60;;
35646;SDS011;28680;45.642;13.756;2023-08-12T08:30:06;4.30;;;2.40;;
35646;SDS011;28680;45.642;13.756;2023-08-12T08:32:34;3.58;;;2.80;;
35646;SDS011;28680;45.642;13.756;2023-08-12T08:34:59;6.50;;;2.95;;
35646;SDS011;28680;45.642;13.756;2023-08-12T08:37:25;4.40;;;2.60;;
35646;SDS011;28680;45.642;13.756;2023-08-12T08:39:51;3.97;;;2.67;;
35646;SDS011;28680;45.642;13.756;2023-08-12T08:42:18;4.90;;;2.28;;
35646;SDS011;28680;45.642;13.756;2023-08-12T08:44:46;5.00;;;3.15;;
35646;SDS011;28680;45.642;13.756;2023-08-12T08:47:25;4.75;;;2.55;;
35646;SDS011;28680;45.642;13.756;2023-08-12T08:49:55;7.93;;;2.75;;
35646;SDS011;28680;45.642;13.756;2023-08-12T08:52:25;3.03;;;2.15;;
35646;SDS011;28680;45.642;13.756;2023-08-12T08:54:51;5.25;;;2.40;;
35646;SDS011;28680;45.642;13.756;2023-08-12T08:57:18;8.40;;;2.50;;
35646;SDS011;28680;45.642;13.756;2023-08-12T08:59:44;4.82;;;2.35;;
35646;SDS011;28680;45.642;13.756;2023-08-12T09:02:16;2.70;;;2.22;;
35646;SDS011;28680;45.642;13.756;2023-08-12T09:04:48;4.72;;;2.40;;
35646;SDS011;28680;45.642;13.756;2023-08-12T09:07:15;4.00;;;2.47;;
35646;SDS011;28680;45.642;13.756;2023-08-12T09:09:42;3.17;;;2.50;;
35646;SDS011;28680;45.642;13.756;2023-08-12T09:12:14;3.05;;;2.25;;
35646;SDS011;28680;45.642;13.756;2023-08-12T09:14:42;4.45;;;2.53;;
35646;SDS011;28680;45.642;13.756;2023-08-12T09:17:09;4.47;;;2.67;;
35646;SDS011;28680;45.642;13.756;2023-08-12T09:19:35;4.38;;;2.42;;
35646;SDS011;28680;45.642;13.756;2023-08-12T09:22:05;3.85;;;2.20;;
35646;SDS011;28680;45.642;13.756;2023-08-12T09:24:34;3.30;;;2.20;;
35646;SDS011;28680;45.642;13.756;2023-08-12T09:27:00;3.40;;;2.45;;
35646;SDS011;28680;45.642;13.756;2023-08-12T09:29:30;4.45;;;2.40;;
35646;SDS011;28680;45.642;13.756;2023-08-12T09:32:12;5.28;;;2.70;;
35646;SDS011;28680;45.642;13.756;2023-08-12T09:34:50;3.97;;;2.70;;
35646;SDS011;28680;45.642;13.756;2023-08-12T09:37:20;3.72;;;2.40;;
35646;SDS011;28680;45.642;13.756;2023-08-12T09:39:48;2.78;;;2.33;;
35646;SDS011;28680;45.642;13.756;2023-08-12T09:42:16;5.57;;;2.78;;
35646;SDS011;28680;45.642;13.756;2023-08-12T09:44:44;4.28;;;2.28;;
35646;SDS011;28680;45.642;13.756;2023-08-12T09:47:10;4.03;;;2.90;;
35646;SDS011;28680;45.642;13.756;2023-08-12T09:49:38;3.97;;;2.50;;
35646;SDS011;28680;45.642;13.756;2023-08-12T09:52:04;3.05;;;2.00;;
35646;SDS011;28680;45.642;13.756;2023-08-12T09:54:36;3.75;;;2.28;;
35646;SDS011;28680;45.642;13.756;2023-08-12T09:57:02;4.82;;;2.40;;
35646;SDS011;28680;45.642;13.756;2023-08-12T09:59:34;3.08;;;2.08;;
35646;SDS011;28680;45.642;13.756;2023-08-12T10:02:01;3.50;;;2.63;;
35646;SDS011;28680;45.642;13.756;2023-08-12T10:04:41;4.82;;;2.50;;
35646;SDS011;28680;45.642;13.756;2023-08-12T10:07:10;7.05;;;2.50;;
35646;SDS011;28680;45.642;13.756;2023-08-12T10:09:40;6.78;;;2.20;;
35646;SDS011;28680;45.642;13.756;2023-08-12T10:12:08;4.65;;;2.35;;
35646;SDS011;28680;45.642;13.756;2023-08-12T10:14:35;5.50;;;2.97;;
35646;SDS011;28680;45.642;13.756;2023-08-12T10:17:01;2.88;;;2.17;;
35646;SDS011;28680;45.642;13.756;2023-08-12T10:19:27;4.40;;;2.42;;
35646;SDS011;28680;45.642;13.756;2023-08-12T10:21:56;3.83;;;2.45;;
35646;SDS011;28680;45.642;13.756;2023-08-12T10:24:26;3.13;;;2.33;;
35646;SDS011;28680;45.642;13.756;2023-08-12T10:26:55;7.97;;;2.40;;
35646;SDS011;28680;45.642;13.756;2023-08-12T10:29:24;4.15;;;2.53;;
35646;SDS011;28680;45.642;13.756;2023-08-12T12:14:30;2.53;;;2.13;;
35646;SDS011;28680;45.642;13.756;2023-08-12T12:16:56;3.45;;;2.30;;
35646;SDS011;28680;45.642;13.756;2023-08-12T12:19:22;7.47;;;3.22;;
35646;SDS011;28680;45.642;13.756;2023-08-12T12:21:49;3.03;;;2.40;;
35646;SDS011;28680;45.642;13.756;2023-08-12T12:24:17;2.85;;;1.92;;
35646;SDS011;28680;45.642;13.756;2023-08-12T12:26:46;3.50;;;1.65;;
35646;SDS011;28680;45.642;13.756;2023-08-12T12:29:13;2.33;;;2.13;;
35646;SDS011;28680;45.642;13.756;2023-08-12T12:31:39;7.32;;;2.13;;
35646;SDS011;28680;45.642;13.756;2023-08-12T12:34:07;2.42;;;1.90;;
35646;SDS011;28680;45.642;13.756;2023-08-12T12:36:35;2.58;;;2.00;;
35646;SDS011;28680;45.642;13.756;2023-08-12T12:39:03;3.45;;;1.95;;
35646;SDS011;28680;45.642;13.756;2023-08-12T12:41:30;4.07;;;2.25;;
35646;SDS011;28680;45.642;13.756;2023-08-12T12:43:56;2.95;;;1.80;;
35646;SDS011;28680;45.642;13.756;2023-08-12T12:46:22;2.97;;;2.20;;
35646;SDS011;28680;45.642;13.756;2023-08-12T12:48:48;3.03;;;2.20;;
35646;SDS011;28680;45.642;13.756;2023-08-12T12:51:14;2.38;;;2.17;;
35646;SDS011;28680;45.642;13.756;2023-08-12T12:53:40;2.85;;;2.17;;
35646;SDS011;28680;45.642;13.756;2023-08-12T12:56:07;2.55;;;1.70;;
35646;SDS011;28680;45.642;13.756;2023-08-12T12:58:33;2.17;;;1.80;;
35646;SDS011;28680;45.642;13.756;2023-08-12T13:01:00;2.60;;;1.95;;
35646;SDS011;28680;45.642;13.756;2023-08-12T13:03:27;3.05;;;1.98;;
35646;SDS011;28680;45.642;13.756;2023-08-12T13:05:53;2.55;;;2.13;;
35646;SDS011;28680;45.642;13.756;2023-08-12T13:08:20;5.15;;;2.28;;
35646;SDS011;28680;45.642;13.756;2023-08-12T13:10:46;3.72;;;2.20;;
35646;SDS011;28680;45.642;13.756;2023-08-12T13:13:15;3.35;;;2.17;;
35646;SDS011;28680;45.642;13.756;2023-08-12T13:15:42;2.55;;;2.30;;
35646;SDS011;28680;45.642;13.756;2023-08-12T13:18:09;2.83;;;1.80;;
35646;SDS011;28680;45.642;13.756;2023-08-12T13:20:36;2.72;;;1.88;;
35646;SDS011;28680;45.642;13.756;2023-08-12T13:26:03;2.22;;;1.73;;
35646;SDS011;28680;45.642;13.756;2023-08-12T13:28:33;4.35;;;2.25;;
35646;SDS011;28680;45.642;13.756;2023-08-12T13:30:59;3.20;;;1.98;;
35646;SDS011;28680;45.642;13.756;2023-08-12T13:33:25;2.00;;;1.80;;
35646;SDS011;28680;45.642;13.756;2023-08-12T13:35:51;1.92;;;1.67;;
35646;SDS011;28680;45.642;13.756;2023-08-12T13:38:17;2.72;;;2.00;;
35646;SDS011;28680;45.642;13.756;2023-08-12T13:41:09;2.53;;;2.03;;
35646;SDS011;28680;45.642;13.756;2023-08-12T13:43:44;3.78;;;2.00;;
35646;SDS011;28680;45.642;13.756;2023-08-12T13:46:16;3.13;;;1.80;;
35646;SDS011;28680;45.642;13.756;2023-08-12T13:48:42;2.67;;;1.90;;
35646;SDS011;28680;45.642;13.756;2023-08-12T13:51:22;2.90;;;1.60;;
35646;SDS011;28680;45.642;13.756;2023-08-12T13:59:07;2.92;;;2.28;;
35646;SDS011;28680;45.642;13.756;2023-08-12T14:01:53;3.63;;;1.83;;
35646;SDS011;28680;45.642;13.756;2023-08-12T14:04:22;2.45;;;1.73;;
35646;SDS011;28680;45.642;13.756;2023-08-12T14:06:48;3.47;;;1.80;;
35646;SDS011;28680;45.642;13.756;2023-08-12T14:09:17;3.88;;;2.03;;
35646;SDS011;28680;45.642;13.756;2023-08-12T14:11:44;3.05;;;1.73;;
35646;SDS011;28680;45.642;13.756;2023-08-12T14:14:11;1.67;;;1.40;;
35646;SDS011;28680;45.642;13.756;2023-08-12T14:16:37;3.72;;;1.67;;
35646;SDS011;28680;45.642;13.756;2023-08-12T14:19:03;1.70;;;1.60;;
35646;SDS011;28680;45.642;13.756;2023-08-12T14:21:29;2.53;;;1.42;;
35646;SDS011;28680;45.642;13.756;2023-08-12T14:23:55;2.25;;;1.58;;
35646;SDS011;28680;45.642;13.756;2023-08-12T14:26:21;1.90;;;1.60;;
35646;SDS011;28680;45.642;13.756;2023-08-12T14:28:50;1.77;;;1.50;;
35646;SDS011;28680;45.642;13.756;2023-08-12T14:31:16;2.42;;;1.63;;
35646;SDS011;28680;45.642;13.756;2023-08-12T14:33:45;3.42;;;1.63;;
35646;SDS011;28680;45.642;13.756;2023-08-12T14:36:12;4.43;;;1.70;;
35646;SDS011;28680;45.642;13.756;2023-08-12T14:38:38;1.50;;;1.40;;
35646;SDS011;28680;45.642;13.756;2023-08-12T14:41:04;2.75;;;1.50;;
35646;SDS011;28680;45.642;13.756;2023-08-12T14:43:36;2.97;;;1.60;;
35646;SDS011;28680;45.642;13.756;2023-08-12T14:46:02;2.05;;;1.63;;
35646;SDS011;28680;45.642;13.756;2023-08-12T14:48:31;4.00;;;1.63;;
35646;SDS011;28680;45.642;13.756;2023-08-12T14:51:00;1.90;;;1.45;;
35646;SDS011;28680;45.642;13.756;2023-08-12T14:53:29;3.45;;;1.42;;
35646;SDS011;28680;45.642;13.756;2023-08-12T14:55:58;2.38;;;1.40;;
35646;SDS011;28680;45.642;13.756;2023-08-12T14:58:27;1.65;;;1.48;;
35646;SDS011;28680;45.642;13.756;2023-08-12T15:00:53;2.30;;;1.40;;
35646;SDS011;28680;45.642;13.756;2023-08-12T15:03:22;3.08;;;1.40;;
35646;SDS011;28680;45.642;13.756;2023-08-12T15:05:57;2.40;;;1.55;;
35646;SDS011;28680;45.642;13.756;2023-08-12T15:08:28;3.40;;;1.60;;
35646;SDS011;28680;45.642;13.756;2023-08-12T15:11:02;2.40;;;1.33;;
35646;SDS011;28680;45.642;13.756;2023-08-12T15:13:28;3.95;;;1.45;;
35646;SDS011;28680;45.642;13.756;2023-08-12T15:15:54;2.15;;;1.27;;
35646;SDS011;28680;45.642;13.756;2023-08-12T15:18:20;1.98;;;1.40;;
35646;SDS011;28680;45.642;13.756;2023-08-12T15:20:46;2.85;;;1.30;;
35646;SDS011;28680;45.642;13.756;2023-08-12T15:23:12;1.20;;;1.10;;
35646;SDS011;28680;45.642;13.756;2023-08-12T15:25:45;1.63;;;1.15;;
35646;SDS011;28680;45.642;13.756;2023-08-12T15:28:17;2.55;;;1.50;;
35646;SDS011;28680;45.642;13.756;2023-08-12T15:30:47;4.28;;;1.60;;
35646;SDS011;28680;45.642;13.756;2023-08-12T15:33:14;5.25;;;1.40;;
35646;SDS011;28680;45.642;13.756;2023-08-12T15:35:42;2.20;;;1.65;;
35646;SDS011;28680;45.642;13.756;2023-08-12T15:38:15;2.78;;;1.30;;
35646;SDS011;28680;45.642;13.756;2023-08-12T15:44:17;2.13;;;1.15;;
35646;SDS011;28680;45.642;13.756;2023-08-12T15:46:43;1.73;;;1.30;;
35646;SDS011;28680;45.642;13.756;2023-08-12T15:49:10;2.58;;;1.38;;
35646;SDS011;28680;45.642;13.756;2023-08-12T15:51:48;1.73;;;1.20;;
35646;SDS011;28680;45.642;13.756;2023-08-12T15:58:32;2.55;;;1.00;;
35646;SDS011;28680;45.642;13.756;2023-08-12T16:01:02;1.73;;;1.30;;
35646;SDS011;28680;45.642;13.756;2023-08-12T16:03:56;1.90;;;1.15;;
35646;SDS011;28680;45.642;13.756;2023-08-12T16:06:23;1.55;;;1.30;;
35646;SDS011;28680;45.642;13.756;2023-08-12T16:29:14;3.50;;;1.13;;
35646;SDS011;28680;45.642;13.756;2023-08-12T16:31:40;2.00;;;1.30;;
35646;SDS011;28680;45.642;13.756;2023-08-12T16:37:15;2.58;;;1.40;;
35646;SDS011;28680;45.642;13.756;2023-08-12T16:39:41;1.73;;;1.27;;
35646;SDS011;28680;45.642;13.756;2023-08-12T17:09:57;1.52;;;1.13;;
35646;SDS011;28680;45.642;13.756;2023-08-12T17:22:56;1.38;;;1.27;;
35646;SDS011;28680;45.642;13.756;2023-08-12T17:25:22;2.15;;;1.35;;
35646;SDS011;28680;45.642;13.756;2023-08-12T17:28:01;2.38;;;1.40;;
35646;SDS011;28680;45.642;13.756;2023-08-12T17:33:22;1.23;;;1.08;;
35646;SDS011;28680;45.642;13.756;2023-08-12T17:42:37;1.23;;;1.00;;
35646;SDS011;28680;45.642;13.756;2023-08-12T18:07:03;1.63;;;1.30;;
35646;SDS011;28680;45.642;13.756;2023-08-12T18:09:44;4.68;;;1.60;;
35646;SDS011;28680;45.642;13.756;2023-08-12T19:13:47;2.88;;;1.77;;